Terminal Aerodrome Forecast
Issued by NWS Tampa Bay Area, FL

Home | Current Version | Previous Version | Text Only | Print | Product List | Glossary On
Versions: 1 2 3 4 5 6 7 8 9 10 11 12 13 14 15 16 17
000
FTUS42 KTBW 281146
TAFSRQ
TAF
KSRQ 281146Z 2812/2912 VRB03KT P6SM SCT030
     FM281600 21007KT P6SM VCTS SCT025CB BKN100
     FM282300 30006KT P6SM SCT040 BKN070
     FM290600 22005KT P6SM VCSH SCT015 BKN050=

USA.gov is the U.S. government's official web portal to all federal, state and local government web resources and services.